createdAt,value
2019-04-11T00:01:53.552Z,4.10
2019-04-11T00:04:24.290Z,4.00
2019-04-11T00:06:54.083Z,3.90
2019-04-11T00:09:24.848Z,3.80
2019-04-11T00:11:54.494Z,3.90
2019-04-11T00:14:24.225Z,3.80
2019-04-11T00:16:53.868Z,3.70
2019-04-11T00:19:23.387Z,3.50
2019-04-11T00:21:53.008Z,3.40
2019-04-11T00:24:22.915Z,3.50
2019-04-11T00:26:54.793Z,3.50
2019-04-11T00:29:26.089Z,3.50
2019-04-11T00:31:56.924Z,3.40
2019-04-11T00:34:27.274Z,3.40
2019-04-11T00:36:56.890Z,3.20
2019-04-11T00:39:26.451Z,3.20
2019-04-11T00:41:56.543Z,3.30
2019-04-11T00:44:27.203Z,3.20
2019-04-11T00:46:56.893Z,3.20
2019-04-11T00:49:26.425Z,3.30
2019-04-11T00:51:56.193Z,3.20
2019-04-11T00:54:26.833Z,3.20
2019-04-11T00:56:56.753Z,3.10
2019-04-11T00:59:26.714Z,3.10
2019-04-11T01:01:56.877Z,3.20
2019-04-11T01:04:27.592Z,3.20
2019-04-11T01:06:58.598Z,3.10
2019-04-11T01:09:28.451Z,3.10
2019-04-11T01:11:58.471Z,3.20
2019-04-11T01:14:28.098Z,3.20
2019-04-11T01:16:57.633Z,3.10
2019-04-11T01:19:27.193Z,3.20
2019-04-11T01:21:57.867Z,3.20
2019-04-11T01:24:28.203Z,3.20
2019-04-11T01:26:57.939Z,3.10
2019-04-11T01:29:27.604Z,3.10
2019-04-11T01:32:02.134Z,3.20
2019-04-11T01:34:32.839Z,3.10
2019-04-11T01:37:03.725Z,3.10
2019-04-11T01:39:55.538Z,3.00
2019-04-11T01:42:25.427Z,3.00
2019-04-11T01:44:55.102Z,3.00
2019-04-11T01:47:39.914Z,3.00
2019-04-11T01:50:10.576Z,2.90
2019-04-11T01:52:40.344Z,3.00
2019-04-11T01:55:10.295Z,2.90
2019-04-11T01:57:40.247Z,2.90
2019-04-11T02:00:12.637Z,2.90
2019-04-11T02:02:55.007Z,3.00
2019-04-11T02:05:29.421Z,3.00
2019-04-11T02:07:59.042Z,2.90
2019-04-11T02:10:28.791Z,2.90
2019-04-11T02:12:59.528Z,2.90
2019-04-11T02:15:30.341Z,2.80
2019-04-11T02:18:01.247Z,2.80
2019-04-11T02:20:31.218Z,2.80
2019-04-11T02:23:04.639Z,2.80
2019-04-11T02:26:13.399Z,2.70
2019-04-11T02:28:43.091Z,2.80
2019-04-11T02:31:13.860Z,2.80
2019-04-11T02:33:43.621Z,2.70
2019-04-11T02:36:13.728Z,2.70
2019-04-11T02:38:44.087Z,2.50
2019-04-11T02:41:14.211Z,2.50
2019-04-11T02:43:44.491Z,2.40
2019-04-11T02:46:22.956Z,2.50
2019-04-11T02:48:45.886Z,2.40
2019-04-11T02:51:15.889Z,2.30
2019-04-11T02:53:47.154Z,2.20
2019-04-11T02:56:17.463Z,2.20
2019-04-11T02:58:50.288Z,2.20
2019-04-11T03:01:20.584Z,2.10
2019-04-11T03:03:51.953Z,2.10
2019-04-11T03:06:23.420Z,2.00
2019-04-11T03:08:54.886Z,2.00
2019-04-11T03:11:27.442Z,1.90
2019-04-11T03:13:58.337Z,1.80
2019-04-11T03:16:42.779Z,1.80
2019-04-11T03:19:18.344Z,1.80
2019-04-11T03:21:36.699Z,1.80
2019-04-11T03:24:06.119Z,1.80
2019-04-11T03:26:35.519Z,1.70
2019-04-11T03:29:06.426Z,1.50
2019-04-11T03:39:32.683Z,1.70
2019-04-11T03:41:59.770Z,1.70
2019-04-11T03:44:23.446Z,1.60
2019-04-11T03:47:01.184Z,1.60
2019-04-11T03:49:29.212Z,1.50
2019-04-11T03:51:50.786Z,1.50
2019-04-11T03:54:21.211Z,1.50
2019-04-11T03:56:51.741Z,1.50
2019-04-11T03:59:23.681Z,1.50
2019-04-11T04:01:54.324Z,1.40
2019-04-11T04:04:26.311Z,1.30
2019-04-11T04:06:57.834Z,1.30
2019-04-11T04:09:29.305Z,1.20
2019-04-11T04:11:59.668Z,1.20
2019-04-11T04:14:51.509Z,1.20
2019-04-11T04:17:41.158Z,1.10
2019-04-11T04:20:30.766Z,1.20
2019-04-11T04:23:07.385Z,1.10
2019-04-11T04:25:39.059Z,1.20
2019-04-11T04:28:10.183Z,1.20
2019-04-11T04:30:41.032Z,1.10
2019-04-11T04:33:12.970Z,1.10
2019-04-11T04:35:44.437Z,1.10
2019-04-11T04:38:15.654Z,1.10
2019-04-11T04:41:00.415Z,1.00
2019-04-11T04:43:20.386Z,1.00
2019-04-11T04:46:08.328Z,1.00
2019-04-11T04:48:24.279Z,1.10
2019-04-11T04:50:55.014Z,1.00
2019-04-11T04:53:27.711Z,1.00
2019-04-11T04:55:55.324Z,1.10
2019-04-11T04:58:26.302Z,1.10
2019-04-11T05:00:58.526Z,1.10
2019-04-11T05:03:29.656Z,1.10
2019-04-11T05:06:01.213Z,1.20
2019-04-11T05:08:32.561Z,1.10
2019-04-11T05:11:02.496Z,1.20
2019-04-11T05:13:34.443Z,1.30
2019-04-11T05:16:13.114Z,1.20
2019-04-11T05:18:36.457Z,1.30
2019-04-11T05:21:06.142Z,1.30
2019-04-11T05:23:35.791Z,1.40
2019-04-11T05:26:05.434Z,1.40
2019-04-11T05:28:35.338Z,1.40
2019-04-11T05:31:06.080Z,1.50
2019-04-11T05:33:36.959Z,1.50
2019-04-11T05:36:06.638Z,1.70
2019-04-11T05:38:37.982Z,1.60
2019-04-11T05:41:12.092Z,1.60
2019-04-11T05:43:41.322Z,1.70
2019-04-11T05:46:23.967Z,1.70
2019-04-11T05:48:47.705Z,1.90
2019-04-11T05:51:21.245Z,1.90
2019-04-11T05:53:51.257Z,2.00
2019-04-11T05:56:24.278Z,2.00
2019-04-11T05:58:55.608Z,2.00
2019-04-11T06:01:32.467Z,2.10
2019-04-11T06:04:07.876Z,2.20
2019-04-11T06:07:13.061Z,2.30
2019-04-11T06:09:46.257Z,2.40
2019-04-11T06:12:30.162Z,2.50
2019-04-11T06:15:04.567Z,2.60
2019-04-11T06:17:34.368Z,2.70
2019-04-11T06:20:22.118Z,2.70
2019-04-11T06:23:14.741Z,2.80
2019-04-11T06:26:09.216Z,2.80
2019-04-11T06:28:39.138Z,2.90
2019-04-11T06:31:31.760Z,2.90
2019-04-11T06:34:05.030Z,2.90
2019-04-11T06:36:51.182Z,3.10
2019-04-11T06:39:29.399Z,3.20
2019-04-11T06:42:24.114Z,3.30
2019-04-11T06:45:17.722Z,3.50
2019-04-11T06:47:59.012Z,3.60
2019-04-11T06:50:37.605Z,3.90
2019-04-11T06:53:08.967Z,4.00
2019-04-11T06:56:09.097Z,4.10
2019-04-11T06:58:43.451Z,4.10
2019-04-11T07:01:17.971Z,4.00
2019-04-11T07:03:51.542Z,4.10
2019-04-11T07:06:24.149Z,4.20
2019-04-11T07:09:20.202Z,4.30
2019-04-11T07:11:57.071Z,4.40
2019-04-11T07:14:33.252Z,4.50
2019-04-11T07:17:21.079Z,4.60
2019-04-11T07:23:05.869Z,4.80
2019-04-11T07:25:54.051Z,5.00
2019-04-11T07:28:33.675Z,5.00
2019-04-11T07:31:38.067Z,5.10
2019-04-11T07:34:31.269Z,5.20
2019-04-11T07:37:23.639Z,5.20
2019-04-11T07:40:24.653Z,5.30
2019-04-11T07:43:05.212Z,5.50
2019-04-11T07:45:38.780Z,5.50
2019-04-11T07:48:17.377Z,5.60
2019-04-11T07:50:47.025Z,5.80
2019-04-11T07:53:17.488Z,6.00
2019-04-11T07:55:47.549Z,6.00
2019-04-11T07:58:22.092Z,6.00
2019-04-11T08:01:04.849Z,6.00
2019-04-11T08:03:55.755Z,6.10
2019-04-11T08:06:41.191Z,6.40
2019-04-11T08:09:29.481Z,6.60
2019-04-11T08:12:06.746Z,6.80
2019-04-11T08:14:48.667Z,6.90
2019-04-11T08:17:30.899Z,7.00
2019-04-11T08:20:29.110Z,7.10
2019-04-11T08:23:04.026Z,7.00
2019-04-11T08:26:01.897Z,6.90
2019-04-11T08:28:31.639Z,7.10
2019-04-11T08:31:26.527Z,7.20
2019-04-11T08:33:59.856Z,7.50
2019-04-11T08:36:47.167Z,7.60
2019-04-11T08:39:20.742Z,7.60
2019-04-11T08:42:21.357Z,7.30
2019-04-11T08:44:52.216Z,7.30
2019-04-11T08:47:22.546Z,7.40
2019-04-11T08:49:55.790Z,7.70
2019-04-11T08:52:40.312Z,7.80
2019-04-11T08:55:23.082Z,7.80
2019-04-11T08:58:00.310Z,7.80
2019-04-11T09:00:43.417Z,7.90
2019-04-11T09:03:44.037Z,7.60
2019-04-11T09:06:20.836Z,7.60
2019-04-11T09:09:09.161Z,7.70
2019-04-11T09:11:44.797Z,7.50
2019-04-11T09:14:33.362Z,7.50
2019-04-11T09:17:31.379Z,7.70
2019-04-11T09:20:19.192Z,7.90
2019-04-11T09:22:59.603Z,8.10
2019-04-11T09:25:50.373Z,8.10
2019-04-11T09:28:44.060Z,8.40
2019-04-11T09:31:42.235Z,8.60
2019-04-11T09:34:25.837Z,8.50
2019-04-11T09:37:20.333Z,8.20
2019-04-11T09:39:56.911Z,7.80
2019-04-11T09:42:45.704Z,7.90
2019-04-11T09:45:41.654Z,8.10
2019-04-11T09:48:36.503Z,7.90
2019-04-11T09:51:38.069Z,8.30
2019-04-11T09:54:26.181Z,8.30
2019-04-11T09:57:16.402Z,8.40
2019-04-11T10:00:08.366Z,8.30
2019-04-11T10:02:56.258Z,8.20
2019-04-11T10:05:30.552Z,7.80
2019-04-11T10:08:18.965Z,7.80
2019-04-11T10:11:26.357Z,7.80
2019-04-11T10:14:21.699Z,7.60
2019-04-11T10:17:10.583Z,7.90
2019-04-11T10:19:58.497Z,8.00
2019-04-11T10:22:45.967Z,8.00
2019-04-11T10:25:40.827Z,8.00
2019-04-11T10:28:29.889Z,8.00
2019-04-11T10:31:34.748Z,8.20
2019-04-11T10:34:30.005Z,8.40
2019-04-11T10:37:07.427Z,8.50
2019-04-11T10:40:00.073Z,8.80
2019-04-11T10:42:30.801Z,8.30
2019-04-11T10:45:26.744Z,8.50
2019-04-11T10:47:58.392Z,8.20
2019-04-11T10:50:46.626Z,8.00
2019-04-11T10:53:17.917Z,8.00
2019-04-11T10:56:10.652Z,8.10
2019-04-11T10:58:45.982Z,8.20
2019-04-11T11:01:28.253Z,8.20
2019-04-11T11:04:04.424Z,8.30
2019-04-11T11:06:34.166Z,8.10
2019-04-11T11:09:10.172Z,7.80
2019-04-11T11:11:46.293Z,7.70
2019-04-11T11:14:38.681Z,7.70
2019-04-11T11:20:32.835Z,7.40
2019-04-11T11:23:26.861Z,7.60
2019-04-11T11:26:14.463Z,7.50
2019-04-11T11:29:07.120Z,7.50
2019-04-11T11:31:38.561Z,7.60
2019-04-11T11:34:17.392Z,7.50
2019-04-11T11:37:07.043Z,7.40
2019-04-11T11:40:02.708Z,7.60
2019-04-11T11:42:47.723Z,7.70
2019-04-11T11:45:25.640Z,7.90
2019-04-11T11:48:14.975Z,7.90
2019-04-11T11:50:40.336Z,8.10
2019-04-11T11:53:28.449Z,8.00
2019-04-11T11:55:59.826Z,8.10
2019-04-11T11:58:55.351Z,8.30
2019-04-11T12:01:21.893Z,8.20
2019-04-11T12:04:14.798Z,8.00
2019-04-11T12:06:44.518Z,7.90
2019-04-11T12:09:42.579Z,7.90
2019-04-11T12:12:17.667Z,8.10
2019-04-11T12:15:28.399Z,8.10
2019-04-11T12:18:04.517Z,8.30
2019-04-11T12:20:44.380Z,8.40
2019-04-11T12:23:24.148Z,8.50
2019-04-11T12:25:55.732Z,8.70
2019-04-11T12:28:43.749Z,9.00
2019-04-11T12:31:13.475Z,9.00
2019-04-11T12:34:01.680Z,8.90
2019-04-11T12:36:34.820Z,8.70
2019-04-11T12:39:15.803Z,8.70
2019-04-11T12:41:56.882Z,8.80
2019-04-11T12:44:51.626Z,8.40
2019-04-11T12:47:23.652Z,8.10
2019-04-11T12:50:24.220Z,8.30
2019-04-11T12:52:57.963Z,8.60
2019-04-11T12:55:32.691Z,8.70
2019-04-11T12:58:20.050Z,8.80
2019-04-11T13:01:10.337Z,8.70
2019-04-11T13:03:57.543Z,8.80
2019-04-11T13:06:35.697Z,8.80
2019-04-11T13:09:33.702Z,8.50
2019-04-11T13:12:03.742Z,8.00
2019-04-11T13:14:42.886Z,8.30
2019-04-11T13:17:16.334Z,8.40
2019-04-11T13:20:05.006Z,8.30
2019-04-11T13:22:34.882Z,8.20
2019-04-11T13:25:23.422Z,8.30
2019-04-11T13:27:56.127Z,8.30
2019-04-11T13:30:43.537Z,8.20
2019-04-11T13:33:16.165Z,8.20
2019-04-11T13:36:04.915Z,8.20
2019-04-11T13:38:39.748Z,8.20
2019-04-11T13:41:20.031Z,8.10
2019-04-11T13:44:04.692Z,8.10
2019-04-11T13:46:53.438Z,8.20
2019-04-11T13:49:41.228Z,8.40
2019-04-11T13:52:30.159Z,8.80
2019-04-11T13:55:14.552Z,8.70
2019-04-11T13:58:06.389Z,8.70
2019-04-11T14:00:41.175Z,8.60
2019-04-11T14:03:48.257Z,8.50
2019-04-11T14:06:35.294Z,8.30
2019-04-11T14:09:25.569Z,8.20
2019-04-11T14:11:56.506Z,8.20
2019-04-11T14:14:40.307Z,8.00
2019-04-11T14:17:22.369Z,7.70
2019-04-11T14:20:11.631Z,7.70
2019-04-11T14:23:14.719Z,7.70
2019-04-11T14:25:52.367Z,7.80
2019-04-11T14:28:22.158Z,7.80
2019-04-11T14:31:26.571Z,7.80
2019-04-11T14:34:01.567Z,7.70
2019-04-11T14:36:49.093Z,7.40
2019-04-11T14:39:19.715Z,7.30
2019-04-11T14:42:11.824Z,7.40
2019-04-11T14:44:39.920Z,7.50
2019-04-11T14:47:40.777Z,7.30
2019-04-11T14:50:11.239Z,7.10
2019-04-11T14:52:58.907Z,7.10
2019-04-11T14:55:28.778Z,7.00
2019-04-11T14:58:10.619Z,7.00
2019-04-11T15:00:41.607Z,7.10
2019-04-11T15:03:18.663Z,7.10
2019-04-11T15:05:56.712Z,7.20
2019-04-11T15:08:43.317Z,7.20
2019-04-11T15:11:41.331Z,7.20
2019-04-11T15:14:18.175Z,7.10
2019-04-11T15:17:11.011Z,7.10
2019-04-11T15:19:41.661Z,7.10
2019-04-11T15:22:23.250Z,7.20
2019-04-11T15:24:55.744Z,7.20
2019-04-11T15:27:58.607Z,7.20
2019-04-11T15:30:29.864Z,7.10
2019-04-11T15:33:17.367Z,7.10
2019-04-11T15:35:47.463Z,7.10
2019-04-11T15:38:38.310Z,7.00
2019-04-11T15:41:08.947Z,7.10
2019-04-11T15:44:00.466Z,7.10
2019-04-11T15:46:32.248Z,7.10
2019-04-11T15:49:31.128Z,7.10
2019-04-11T15:52:07.493Z,7.00
2019-04-11T15:54:56.521Z,6.80
2019-04-11T15:57:34.401Z,6.90
2019-04-11T16:00:28.638Z,6.80
2019-04-11T16:03:04.545Z,6.90
2019-04-11T16:05:52.522Z,6.90
2019-04-11T16:08:50.187Z,6.70
2019-04-11T16:11:53.981Z,6.80
2019-04-11T16:14:26.098Z,6.40
2019-04-11T16:17:14.938Z,6.40
2019-04-11T16:19:52.458Z,6.30
2019-04-11T16:22:47.035Z,6.20
2019-04-11T16:25:22.492Z,6.10
2019-04-11T16:28:11.407Z,6.00
2019-04-11T16:30:43.606Z,6.00
2019-04-11T16:33:23.766Z,6.00
2019-04-11T16:35:58.856Z,6.00
2019-04-11T16:38:29.967Z,6.00
2019-04-11T16:41:18.696Z,5.90
2019-04-11T16:43:54.646Z,6.00
2019-04-11T16:46:57.352Z,6.00
2019-04-11T16:49:26.980Z,6.00
2019-04-11T16:51:56.700Z,5.90
2019-04-11T16:54:26.329Z,5.90
2019-04-11T16:56:55.974Z,5.80
2019-04-11T16:59:25.617Z,5.70
2019-04-11T17:01:55.283Z,5.60
2019-04-11T17:04:26.090Z,5.50
2019-04-11T17:07:33.494Z,5.50
2019-04-11T17:10:03.891Z,5.50
2019-04-11T17:12:33.683Z,5.60
2019-04-11T17:15:03.482Z,5.50
2019-04-11T17:17:33.251Z,5.50
2019-04-11T17:20:05.827Z,5.40
2019-04-11T17:22:34.595Z,5.30
2019-04-11T17:25:04.523Z,5.40
2019-04-11T17:27:34.198Z,5.30
2019-04-11T17:30:03.961Z,5.30
2019-04-11T17:32:33.576Z,5.30
2019-04-11T17:35:03.259Z,5.30
2019-04-11T17:37:33.221Z,5.30
2019-04-11T17:40:06.829Z,5.30
2019-04-11T17:42:36.916Z,5.30
2019-04-11T17:45:06.587Z,5.30
2019-04-11T17:47:36.233Z,5.30
2019-04-11T17:50:06.656Z,5.20
2019-04-11T17:52:36.448Z,5.20
2019-04-11T17:55:06.166Z,5.30
2019-04-11T17:57:35.897Z,5.20
2019-04-11T18:00:08.269Z,5.20
2019-04-11T18:02:39.003Z,5.10
2019-04-11T18:05:09.806Z,5.10
2019-04-11T18:07:41.448Z,5.20
2019-04-11T18:10:11.054Z,5.20
2019-04-11T18:12:40.683Z,5.10
2019-04-11T18:15:12.216Z,5.20
2019-04-11T18:17:41.898Z,5.10
2019-04-11T18:20:11.687Z,5.00
2019-04-11T18:22:43.747Z,5.00
2019-04-11T18:25:13.346Z,5.10
2019-04-11T18:27:43.003Z,5.10
2019-04-11T18:30:15.240Z,5.10
2019-04-11T18:32:45.028Z,4.90
2019-04-11T18:35:14.779Z,4.90
2019-04-11T18:37:44.375Z,4.80
2019-04-11T18:40:15.335Z,4.80
2019-04-11T18:42:45.029Z,4.90
2019-04-11T18:45:16.252Z,4.90
2019-04-11T18:47:45.944Z,4.90
2019-04-11T18:50:16.327Z,4.80
2019-04-11T18:52:46.072Z,4.90
2019-04-11T18:55:15.717Z,4.90
2019-04-11T18:57:45.328Z,4.80
2019-04-11T19:00:18.758Z,4.80
2019-04-11T19:02:48.653Z,4.80
2019-04-11T19:05:28.133Z,4.80
2019-04-11T19:07:49.908Z,4.80
2019-04-11T19:10:19.680Z,4.80
2019-04-11T19:12:49.312Z,4.80
2019-04-11T19:15:19.088Z,4.80
2019-04-11T19:17:48.730Z,4.70
2019-04-11T19:20:19.127Z,4.70
2019-04-11T19:22:49.353Z,4.60
2019-04-11T19:25:18.955Z,4.70
2019-04-11T19:27:53.275Z,4.60
2019-04-11T19:30:20.015Z,4.60
2019-04-11T19:32:49.722Z,4.60
2019-04-11T19:35:19.331Z,4.70
2019-04-11T19:37:48.955Z,4.70
2019-04-11T19:40:18.571Z,4.70
2019-04-11T19:42:49.815Z,4.70
2019-04-11T19:45:20.254Z,4.70
2019-04-11T19:47:52.225Z,4.60
2019-04-11T19:50:21.391Z,4.60
2019-04-11T19:52:50.998Z,4.50
2019-04-11T19:55:42.732Z,4.60
2019-04-11T19:58:12.471Z,4.50
2019-04-11T20:00:42.168Z,4.40
2019-04-11T20:03:11.847Z,4.40
2019-04-11T20:05:41.586Z,4.50
2019-04-11T20:08:12.446Z,4.40
2019-04-11T20:10:42.202Z,4.40
2019-04-11T20:13:11.841Z,4.40
2019-04-11T20:15:42.367Z,4.40
2019-04-11T20:18:12.633Z,4.30
2019-04-11T20:20:42.426Z,4.40
2019-04-11T20:23:12.064Z,4.30
2019-04-11T20:25:46.193Z,4.30
2019-04-11T20:28:13.022Z,4.20
2019-04-11T20:30:42.956Z,4.30
2019-04-11T20:33:12.636Z,4.20
2019-04-11T20:35:42.334Z,4.30
2019-04-11T20:38:15.907Z,4.40
2019-04-11T20:40:43.222Z,4.20
2019-04-11T20:43:12.893Z,4.20
2019-04-11T20:45:42.849Z,4.20
2019-04-11T20:48:12.491Z,4.20
2019-04-11T20:50:42.091Z,4.30
2019-04-11T20:53:14.098Z,4.30
2019-04-11T20:55:43.717Z,4.30
2019-04-11T20:58:13.485Z,4.30
2019-04-11T21:00:50.910Z,4.30
2019-04-11T21:03:17.089Z,4.20
2019-04-11T21:05:46.764Z,4.20
2019-04-11T21:08:16.367Z,4.10
2019-04-11T21:10:45.977Z,4.10
2019-04-11T21:13:15.603Z,4.20
2019-04-11T21:15:45.221Z,4.10
2019-04-11T21:18:14.915Z,4.20
2019-04-11T21:20:44.516Z,4.10
2019-04-11T21:23:23.994Z,4.00
2019-04-11T21:25:45.418Z,4.10
2019-04-11T21:31:54.254Z,4.00
2019-04-11T21:34:23.986Z,4.20
2019-04-11T21:36:53.629Z,4.20
2019-04-11T21:39:23.290Z,4.20
2019-04-11T21:41:52.983Z,4.10
2019-04-11T21:44:22.627Z,3.90
2019-04-11T21:46:52.263Z,4.00
2019-04-11T21:49:21.939Z,4.00
2019-04-11T21:51:51.534Z,4.10
2019-04-11T21:54:21.142Z,4.20
2019-04-11T21:56:50.794Z,4.10
2019-04-11T21:59:21.095Z,4.10
2019-04-11T22:01:54.155Z,4.00
2019-04-11T22:04:26.874Z,3.90
2019-04-11T22:06:54.697Z,4.00
2019-04-11T22:09:24.306Z,3.90
2019-04-11T22:11:53.909Z,3.90
2019-04-11T22:14:23.612Z,4.00
2019-04-11T22:16:54.991Z,4.10
2019-04-11T22:19:24.772Z,4.00
2019-04-11T22:21:54.430Z,3.90
2019-04-11T22:24:24.218Z,4.00
2019-04-11T22:26:54.771Z,3.90
2019-04-11T22:29:25.067Z,3.90
2019-04-11T22:35:09.689Z,3.90
2019-04-11T22:37:39.338Z,3.80
2019-04-11T22:40:09.140Z,3.80
2019-04-11T22:42:38.822Z,3.80
2019-04-11T22:45:09.189Z,3.80
2019-04-11T22:47:38.985Z,3.80
2019-04-11T22:50:10.099Z,3.70
2019-04-11T22:52:42.332Z,3.60
2019-04-11T22:55:11.968Z,3.70
2019-04-11T22:57:43.629Z,3.70
2019-04-11T23:00:15.312Z,3.80
2019-04-11T23:03:07.599Z,3.80
2019-04-11T23:05:37.207Z,3.80
2019-04-11T23:08:06.844Z,3.80
2019-04-11T23:10:46.730Z,3.80
2019-04-11T23:13:15.899Z,3.80
2019-04-11T23:15:45.979Z,3.80
2019-04-11T23:18:15.675Z,3.80
2019-04-11T23:20:45.253Z,3.90
2019-04-11T23:23:14.926Z,3.80
2019-04-11T23:25:44.541Z,3.80
2019-04-11T23:28:15.812Z,3.70
2019-04-11T23:30:49.490Z,3.50
2019-04-11T23:33:18.962Z,3.50
2019-04-11T23:35:48.807Z,3.50
2019-04-11T23:38:23.594Z,3.50
2019-04-11T23:40:51.245Z,3.50
2019-04-11T23:43:21.515Z,3.60
2019-04-11T23:45:51.730Z,3.50
2019-04-11T23:48:23.706Z,3.60
2019-04-11T23:50:55.108Z,3.60
2019-04-11T23:53:28.151Z,3.50
2019-04-11T23:55:55.397Z,3.60
2019-04-11T23:58:24.957Z,3.60
